Time,TemperatureF,DewpointF,PressureIn,WindDirection,WindDirectionDegrees,WindSpeedMPH,WindSpeedGustMPH,Humidity,HourlyPrecipIn,Conditions,Clouds,dailyrainin,SoftwareType,DateUTC
2013-05-21 01:00:00,39.0,30.0,-100.00,South,189,18.0,27.0,70,-99.99,,,-99.99,,2013-05-21 08:00:00,
2013-05-21 02:00:00,36.0,26.0,-100.00,SSE,166,22.0,37.0,66,-99.99,,,-99.99,,2013-05-21 09:00:00,
2013-05-21 02:53:00,36.0,26.0,-100.00,SSE,166,22.0,37.0,66,-99.99,,,-99.99,,2013-05-21 09:53:00,
2013-05-21 03:00:00,35.0,28.0,-100.00,South,172,39.0,58.0,76,-99.99,,,-99.99,,2013-05-21 10:00:00,
2013-05-21 04:00:00,33.0,29.0,-100.00,SSE,154,32.0,53.0,86,-99.99,,,-99.99,,2013-05-21 11:00:00,
2013-05-21 05:00:00,34.0,30.0,-100.00,SE,133,18.0,37.0,84,-99.99,,,-99.99,,2013-05-21 12:00:00,
2013-05-21 06:00:00,32.0,32.0,-100.00,SSW,209,12.0,23.0,98,-99.99,,,-99.99,,2013-05-21 13:00:00,
2013-05-21 11:00:00,32.0,32.0,-100.00,North,353,5.0,10.0,98,-99.99,,,-99.99,,2013-05-21 18:00:00,
2013-05-21 11:52:00,32.0,32.0,-100.00,North,353,5.0,10.0,98,-99.99,,,-99.99,,2013-05-21 18:52:00,
2013-05-21 12:00:00,32.0,31.0,-100.00,West,274,7.0,12.0,96,-99.99,,,-99.99,,2013-05-21 19:00:00,
2013-05-21 12:52:00,32.0,31.0,-100.00,West,274,7.0,12.0,96,-99.99,,,-99.99,,2013-05-21 19:52:00,
2013-05-21 13:00:00,31.0,30.0,-100.00,West,281,7.0,13.0,95,-99.99,,,-99.99,,2013-05-21 20:00:00,
2013-05-21 13:52:00,31.0,30.0,-100.00,West,281,7.0,13.0,95,-99.99,,,-99.99,,2013-05-21 20:52:00,
2013-05-21 14:00:00,29.0,28.0,-100.00,NW,321,6.0,13.0,95,-99.99,,,-99.99,,2013-05-21 21:00:00,
2013-05-21 14:54:00,29.0,28.0,-100.00,NW,321,6.0,13.0,95,-99.99,,,-99.99,,2013-05-21 21:54:00,
2013-05-21 18:00:00,32.0,31.0,-100.00,WNW,283,14.0,20.0,95,-99.99,,,-99.99,,2013-05-22 01:00:00,
2013-05-21 18:52:00,32.0,31.0,-100.00,WNW,283,14.0,20.0,95,-99.99,,,-99.99,,2013-05-22 01:52:00,
2013-05-21 19:00:00,27.0,27.0,-100.00,WNW,292,13.0,23.0,99,-99.99,,,-99.99,,2013-05-22 02:00:00,
2013-05-21 19:52:00,27.0,27.0,-100.00,WNW,292,13.0,23.0,99,-99.99,,,-99.99,,2013-05-22 02:52:00,
2013-05-21 20:00:00,26.0,26.0,-100.00,West,266,14.0,21.0,100,-99.99,,,-99.99,,2013-05-22 03:00:00,
2013-05-21 20:53:00,26.0,26.0,-100.00,West,266,14.0,21.0,100,-99.99,,,-99.99,,2013-05-22 03:53:00,
2013-05-21 21:00:00,25.0,25.0,-100.00,West,266,14.0,20.0,100,-99.99,,,-99.99,,2013-05-22 04:00:00,
2013-05-21 21:53:00,25.0,25.0,-100.00,West,266,14.0,20.0,100,-99.99,,,-99.99,,2013-05-22 04:53:00,
2013-05-21 22:00:00,24.0,24.0,-100.00,West,269,13.0,21.0,99,-99.99,,,-99.99,,2013-05-22 05:00:00,
2013-05-21 22:52:00,24.0,24.0,-100.00,West,269,13.0,21.0,99,-99.99,,,-99.99,,2013-05-22 05:52:00,
2013-05-21 23:00:00,24.0,24.0,-100.00,West,278,15.0,23.0,99,-99.99,,,-99.99,,2013-05-22 06:00:00,
2013-05-21 23:52:00,24.0,24.0,-100.00,West,278,15.0,23.0,99,-99.99,,,-99.99,,2013-05-22 06:52:00,